createdAt,value
2022-09-22T00:00:57.523Z,100871.25
2022-09-22T00:03:31.348Z,100869.98
2022-09-22T00:06:00.478Z,100866.35
2022-09-22T00:08:30.371Z,100866.27
2022-09-22T00:11:02.415Z,100866.42
2022-09-22T00:13:31.988Z,100865.50
2022-09-22T00:16:00.871Z,100864.36
2022-09-22T00:18:29.261Z,100864.45
2022-09-22T00:20:57.102Z,100860.13
2022-09-22T00:23:25.651Z,100858.20
2022-09-22T00:25:53.565Z,100857.19
2022-09-22T00:28:22.323Z,100860.86
2022-09-22T00:30:50.190Z,100860.64
2022-09-22T00:33:18.174Z,100860.45
2022-09-22T00:35:55.943Z,100866.79
2022-09-22T00:38:23.739Z,100866.98
2022-09-22T00:40:51.678Z,100866.37
2022-09-22T00:43:20.498Z,100863.63
2022-09-22T00:45:50.020Z,100862.36
2022-09-22T00:48:19.818Z,100864.74
2022-09-22T00:50:48.592Z,100862.13
2022-09-22T00:53:17.161Z,100862.38
2022-09-22T00:55:47.387Z,100863.34
2022-09-22T00:58:16.780Z,100860.67
2022-09-22T01:00:45.246Z,100860.46
2022-09-22T01:03:14.221Z,100858.91
2022-09-22T01:05:43.542Z,100856.53
2022-09-22T01:08:12.047Z,100858.21
2022-09-22T01:10:39.958Z,100859.02
2022-09-22T01:13:14.774Z,100860.23
2022-09-22T01:15:46.430Z,100862.11
2022-09-22T01:18:19.201Z,100861.27
2022-09-22T01:21:01.841Z,100862.30
2022-09-22T01:23:47.087Z,100863.33
2022-09-22T01:26:35.135Z,100867.46
2022-09-22T01:29:22.946Z,100867.17
2022-09-22T01:31:55.013Z,100865.56
2022-09-22T01:34:27.379Z,100867.67
2022-09-22T01:37:02.727Z,100867.93
2022-09-22T01:39:34.224Z,100868.36
2022-09-22T01:42:05.732Z,100865.92
2022-09-22T01:44:35.566Z,100865.13
2022-09-22T01:47:06.267Z,100866.82
2022-09-22T01:49:36.026Z,100867.90
2022-09-22T01:52:07.416Z,100869.43
2022-09-22T01:54:38.586Z,100863.89
2022-09-22T01:57:11.671Z,100861.14
2022-09-22T01:59:40.485Z,100855.83
2022-09-22T02:02:12.745Z,100856.63
2022-09-22T02:04:45.198Z,100853.84
2022-09-22T02:07:15.827Z,100861.26
2022-09-22T02:09:46.771Z,100859.26
2022-09-22T02:12:19.239Z,100858.25
2022-09-22T02:14:47.221Z,100859.27
2022-09-22T02:17:15.609Z,100860.80
2022-09-22T02:19:43.487Z,100865.84
2022-09-22T02:22:12.124Z,100865.39
2022-09-22T02:24:41.227Z,100866.21
2022-09-22T02:27:11.522Z,100869.02
2022-09-22T02:29:41.067Z,100870.09
2022-09-22T02:32:10.735Z,100873.09
2022-09-22T02:34:38.984Z,100875.14
2022-09-22T02:37:12.867Z,100877.14
2022-09-22T02:39:42.766Z,100875.65
2022-09-22T02:42:15.958Z,100875.38
2022-09-22T02:44:47.595Z,100874.61
2022-09-22T02:47:17.749Z,100876.73
2022-09-22T02:49:45.675Z,100877.59
2022-09-22T02:52:14.098Z,100876.80
2022-09-22T02:54:42.070Z,100876.66
2022-09-22T02:57:10.244Z,100878.73
2022-09-22T02:59:38.075Z,100878.85
2022-09-22T03:02:05.925Z,100879.34
2022-09-22T03:04:33.922Z,100884.20
2022-09-22T03:07:01.750Z,100886.50
2022-09-22T03:09:29.522Z,100885.63
2022-09-22T03:11:57.422Z,100884.31
2022-09-22T03:14:25.331Z,100883.93
2022-09-22T03:16:53.114Z,100881.49
2022-09-22T03:19:20.963Z,100885.31
2022-09-22T03:21:48.835Z,100883.27
2022-09-22T03:24:16.685Z,100888.10
2022-09-22T03:26:44.596Z,100886.16
2022-09-22T03:29:12.650Z,100889.49
2022-09-22T03:31:40.564Z,100893.86
2022-09-22T03:34:08.519Z,100895.95
2022-09-22T03:36:36.448Z,100895.42
2022-09-22T03:39:04.318Z,100895.02
2022-09-22T03:41:32.158Z,100896.52
2022-09-22T03:43:59.998Z,100894.95
2022-09-22T03:46:27.965Z,100894.10
2022-09-22T03:48:56.259Z,100890.92
2022-09-22T03:51:24.137Z,100893.86
2022-09-22T03:53:52.003Z,100897.56
2022-09-22T03:56:19.891Z,100897.27
2022-09-22T03:58:47.875Z,100896.85
2022-09-22T04:01:15.753Z,100896.08
2022-09-22T04:03:43.857Z,100900.80
2022-09-22T04:06:11.864Z,100903.06
2022-09-22T04:08:40.119Z,100905.58
2022-09-22T04:11:07.935Z,100906.70
2022-09-22T04:13:35.865Z,100900.47
2022-09-22T04:16:04.731Z,100903.86
2022-09-22T04:18:32.803Z,100904.44
2022-09-22T04:21:00.894Z,100902.22
2022-09-22T04:23:28.757Z,100902.23
2022-09-22T04:25:56.651Z,100900.63
2022-09-22T04:28:24.480Z,100901.09
2022-09-22T04:30:52.453Z,100899.51
2022-09-22T04:33:20.463Z,100898.79
2022-09-22T04:35:48.995Z,100905.93
2022-09-22T04:38:16.918Z,100903.28
2022-09-22T04:40:45.506Z,100902.23
2022-09-22T04:43:13.455Z,100901.88
2022-09-22T04:45:42.968Z,100898.81
2022-09-22T04:48:10.689Z,100895.91
2022-09-22T04:50:38.458Z,100894.87
2022-09-22T04:53:07.233Z,100892.77
2022-09-22T04:55:35.267Z,100893.21
2022-09-22T04:58:03.023Z,100890.51
2022-09-22T05:00:31.030Z,100888.69
2022-09-22T05:03:00.029Z,100890.44
2022-09-22T05:05:27.834Z,100890.27
2022-09-22T05:07:55.788Z,100890.25
2022-09-22T05:10:24.655Z,100887.92
2022-09-22T05:12:53.375Z,100890.50
2022-09-22T05:15:21.954Z,100891.60
2022-09-22T05:17:50.718Z,100893.96
2022-09-22T05:20:19.312Z,100897.54
2022-09-22T05:22:47.507Z,100901.06
2022-09-22T05:25:16.967Z,100901.48
2022-09-22T05:27:45.851Z,100906.07
2022-09-22T05:30:14.434Z,100904.38
2022-09-22T05:32:43.859Z,100905.14
2022-09-22T05:35:13.053Z,100906.06
2022-09-22T05:37:42.351Z,100905.05
2022-09-22T05:40:11.242Z,100907.38
2022-09-22T05:42:40.986Z,100905.90
2022-09-22T05:45:09.903Z,100905.40
2022-09-22T05:47:38.929Z,100902.84
2022-09-22T05:50:09.001Z,100904.29
2022-09-22T05:52:36.861Z,100905.98
2022-09-22T05:55:06.413Z,100909.74
2022-09-22T05:57:34.359Z,100910.04
2022-09-22T06:00:04.202Z,100907.15
2022-09-22T06:02:32.230Z,100906.52
2022-09-22T06:05:00.585Z,100902.08
2022-09-22T06:07:28.433Z,100900.60
2022-09-22T06:09:56.422Z,100901.04
2022-09-22T06:12:24.543Z,100902.88
2022-09-22T06:14:52.374Z,100903.58
2022-09-22T06:17:20.331Z,100898.96
2022-09-22T06:19:49.711Z,100890.33
2022-09-22T06:22:17.838Z,100889.02
2022-09-22T06:24:45.543Z,100884.03
2022-09-22T06:27:13.292Z,100891.08
2022-09-22T06:29:41.786Z,100890.67
2022-09-22T06:32:09.900Z,100893.77
2022-09-22T06:34:37.758Z,100894.98
2022-09-22T06:37:07.843Z,100902.36
2022-09-22T06:39:37.045Z,100898.90
2022-09-22T06:42:05.232Z,100900.77
2022-09-22T06:44:33.159Z,100903.13
2022-09-22T06:47:04.679Z,100908.91
2022-09-22T06:49:32.546Z,100911.67
2022-09-22T06:52:00.495Z,100912.96
2022-09-22T06:54:28.454Z,100914.09
2022-09-22T06:56:56.339Z,100914.50
2022-09-22T06:59:24.162Z,100911.77
2022-09-22T07:01:52.093Z,100913.88
2022-09-22T07:04:21.875Z,100911.91
2022-09-22T07:06:50.257Z,100913.19
2022-09-22T07:09:18.163Z,100906.01
2022-09-22T07:11:46.807Z,100899.64
2022-09-22T07:14:14.811Z,100904.98
2022-09-22T07:16:43.438Z,100906.36
2022-09-22T07:19:11.416Z,100903.59
2022-09-22T07:21:39.931Z,100911.12
2022-09-22T07:24:08.154Z,100913.10
2022-09-22T07:26:37.807Z,100902.22
2022-09-22T07:29:07.791Z,100905.71
2022-09-22T07:31:36.129Z,100906.54
2022-09-22T07:34:04.178Z,100910.11
2022-09-22T07:36:33.158Z,100907.54
2022-09-22T07:39:04.563Z,100911.59
2022-09-22T07:41:40.811Z,100909.02
2022-09-22T07:44:27.283Z,100907.70
2022-09-22T07:46:55.682Z,100904.63
2022-09-22T07:49:23.748Z,100910.28
2022-09-22T07:51:54.153Z,100910.31
2022-09-22T07:54:22.320Z,100912.00
2022-09-22T07:56:51.498Z,100916.88
2022-09-22T07:59:19.321Z,100909.20
2022-09-22T08:01:48.633Z,100912.46
2022-09-22T08:04:18.371Z,100913.71
2022-09-22T08:06:48.091Z,100915.46
2022-09-22T08:09:17.706Z,100913.20
2022-09-22T08:11:47.928Z,100910.18
2022-09-22T08:14:17.632Z,100908.14
2022-09-22T08:16:45.735Z,100908.73
2022-09-22T08:19:14.289Z,100903.04
2022-09-22T08:21:48.971Z,100901.70
2022-09-22T08:24:21.409Z,100899.43
2022-09-22T08:26:50.294Z,100895.74
2022-09-22T08:29:18.162Z,100894.74
2022-09-22T08:31:46.787Z,100893.13
2022-09-22T08:34:15.892Z,100896.20
2022-09-22T08:36:47.695Z,100893.33
2022-09-22T08:39:16.137Z,100890.11
2022-09-22T08:41:49.340Z,100887.30
2022-09-22T08:44:19.855Z,100881.45
2022-09-22T08:46:47.617Z,100879.96
2022-09-22T08:49:36.399Z,100878.74
2022-09-22T08:52:06.519Z,100880.86
2022-09-22T08:54:35.036Z,100880.40
2022-09-22T08:57:22.911Z,100881.41
2022-09-22T08:59:53.256Z,100879.91
2022-09-22T09:02:37.908Z,100872.20
2022-09-22T09:05:23.307Z,100871.20
2022-09-22T09:07:58.160Z,100869.97
2022-09-22T09:10:32.304Z,100869.41
2022-09-22T09:13:11.945Z,100868.90
2022-09-22T09:15:46.759Z,100871.75
2022-09-22T09:18:15.588Z,100870.30
2022-09-22T09:20:45.114Z,100870.67
2022-09-22T09:23:17.979Z,100868.90
2022-09-22T09:25:48.177Z,100866.34
2022-09-22T09:28:18.523Z,100865.55
2022-09-22T09:30:50.666Z,100861.40
2022-09-22T09:33:23.590Z,100858.34
2022-09-22T09:35:52.977Z,100861.21
2022-09-22T09:38:24.963Z,100860.05
2022-09-22T09:40:57.082Z,100852.83
2022-09-22T09:43:27.165Z,100853.44
2022-09-22T09:46:00.375Z,100852.27
2022-09-22T09:48:34.028Z,100855.30
2022-09-22T09:51:03.056Z,100854.56
2022-09-22T09:53:31.923Z,100850.91
2022-09-22T09:56:00.336Z,100849.55
2022-09-22T09:58:46.496Z,100848.02
2022-09-22T10:01:14.789Z,100851.44
2022-09-22T10:03:46.313Z,100855.81
2022-09-22T10:06:15.337Z,100855.47
2022-09-22T10:08:44.515Z,100851.66
2022-09-22T10:11:14.456Z,100853.60
2022-09-22T10:13:43.510Z,100852.98
2022-09-22T10:16:29.926Z,100848.81
2022-09-22T10:19:16.069Z,100849.44
2022-09-22T10:21:44.018Z,100846.90
2022-09-22T10:24:22.991Z,100841.67
2022-09-22T10:26:55.390Z,100840.55
2022-09-22T10:29:24.489Z,100838.89
2022-09-22T10:32:03.604Z,100835.33
2022-09-22T10:34:33.064Z,100826.60
2022-09-22T10:37:02.674Z,100829.02
2022-09-22T10:39:35.610Z,100828.34
2022-09-22T10:42:07.441Z,100827.75
2022-09-22T10:44:38.936Z,100824.38
2022-09-22T10:47:16.210Z,100824.98
2022-09-22T10:49:53.614Z,100825.73
2022-09-22T10:52:25.160Z,100820.42
2022-09-22T10:55:04.310Z,100826.37
2022-09-22T10:57:47.190Z,100818.70
2022-09-22T11:00:16.197Z,100820.06
2022-09-22T11:02:58.157Z,100814.81
2022-09-22T11:05:52.294Z,100816.39
2022-09-22T11:08:38.928Z,100812.84
2022-09-22T11:11:29.775Z,100810.80
2022-09-22T11:14:06.849Z,100812.64
2022-09-22T11:16:42.133Z,100810.74
2022-09-22T11:19:19.729Z,100808.36
2022-09-22T11:21:59.383Z,100802.95
2022-09-22T11:24:38.690Z,100800.73
2022-09-22T11:27:13.445Z,100799.11
2022-09-22T11:29:46.702Z,100798.37
2022-09-22T11:32:23.594Z,100798.80
2022-09-22T11:35:00.351Z,100793.98
2022-09-22T11:37:34.813Z,100786.06
2022-09-22T11:40:16.724Z,100785.25
2022-09-22T11:42:51.769Z,100782.24
2022-09-22T11:45:27.035Z,100775.77
2022-09-22T11:48:02.698Z,100776.94
2022-09-22T11:50:35.109Z,100778.87
2022-09-22T11:53:20.331Z,100776.17
2022-09-22T11:55:56.125Z,100768.70
2022-09-22T11:58:26.634Z,100765.55
2022-09-22T12:00:58.696Z,100768.91
2022-09-22T12:03:27.173Z,100768.04
2022-09-22T12:05:59.019Z,100766.25
2022-09-22T12:08:29.763Z,100762.68
2022-09-22T12:10:58.149Z,100758.61
2022-09-22T12:13:27.563Z,100757.50
2022-09-22T12:16:01.104Z,100756.17
2022-09-22T12:18:35.580Z,100753.27
2022-09-22T12:21:06.231Z,100751.36
2022-09-22T12:23:38.683Z,100747.76
2022-09-22T12:26:07.984Z,100753.95
2022-09-22T12:28:39.318Z,100754.66
2022-09-22T12:31:09.738Z,100757.89
2022-09-22T12:33:38.135Z,100758.13
2022-09-22T12:36:06.706Z,100754.13
2022-09-22T12:38:34.775Z,100751.40
2022-09-22T12:41:03.774Z,100750.88
2022-09-22T12:43:32.562Z,100755.85
2022-09-22T12:46:02.798Z,100751.55
2022-09-22T12:48:32.674Z,100749.73
2022-09-22T12:51:17.187Z,100749.97
2022-09-22T12:56:34.974Z,100744.80
2022-09-22T12:59:02.818Z,100737.04
2022-09-22T13:01:32.188Z,100740.34
2022-09-22T13:04:14.076Z,100743.41
2022-09-22T13:06:58.216Z,100740.34
2022-09-22T13:09:29.397Z,100734.08
2022-09-22T13:12:17.364Z,100733.41
2022-09-22T13:15:03.198Z,100734.96
2022-09-22T13:17:39.155Z,100739.52
2022-09-22T13:20:17.874Z,100737.60
2022-09-22T13:22:45.729Z,100734.21
2022-09-22T13:25:21.007Z,100733.23
2022-09-22T13:27:50.822Z,100731.77
2022-09-22T13:30:18.939Z,100732.16
2022-09-22T13:32:50.483Z,100734.11
2022-09-22T13:35:25.377Z,100733.65
2022-09-22T13:37:55.607Z,100732.48
2022-09-22T13:40:26.055Z,100731.60
2022-09-22T13:42:55.104Z,100732.35
2022-09-22T13:45:25.631Z,100732.92
2022-09-22T13:47:54.703Z,100732.13
2022-09-22T13:50:23.095Z,100732.11
2022-09-22T13:52:51.579Z,100731.45
2022-09-22T13:55:22.000Z,100727.69
2022-09-22T13:57:51.003Z,100732.14
2022-09-22T14:00:23.914Z,100732.64
2022-09-22T14:02:51.897Z,100738.21
2022-09-22T14:05:21.071Z,100740.25
2022-09-22T14:08:10.617Z,100740.46
2022-09-22T14:10:40.151Z,100742.88
2022-09-22T14:13:22.055Z,100744.39
2022-09-22T14:15:50.206Z,100748.80
2022-09-22T14:18:22.280Z,100753.86
2022-09-22T14:20:52.399Z,100759.80
2022-09-22T14:23:25.770Z,100760.84
2022-09-22T14:25:53.939Z,100759.98
2022-09-22T14:28:24.386Z,100753.88
2022-09-22T14:30:52.754Z,100754.28
2022-09-22T14:33:22.604Z,100754.70
2022-09-22T14:35:52.386Z,100751.48
2022-09-22T14:38:25.371Z,100753.85
2022-09-22T14:40:54.480Z,100750.54
2022-09-22T14:43:23.999Z,100751.69
2022-09-22T14:45:58.604Z,100748.20
2022-09-22T14:48:30.674Z,100750.65
2022-09-22T14:51:01.590Z,100751.68
2022-09-22T14:53:32.021Z,100752.05
2022-09-22T14:56:05.858Z,100751.30
2022-09-22T14:58:40.272Z,100755.35
2022-09-22T15:01:36.938Z,100758.94
2022-09-22T15:04:10.329Z,100759.76
2022-09-22T15:06:39.299Z,100757.17
2022-09-22T15:09:12.753Z,100759.52
2022-09-22T15:11:48.370Z,100759.30
2022-09-22T15:14:32.123Z,100756.91
2022-09-22T15:17:20.367Z,100758.13
2022-09-22T15:19:50.483Z,100759.66
2022-09-22T15:22:18.495Z,100758.54
2022-09-22T15:24:46.483Z,100760.92
2022-09-22T15:27:17.035Z,100760.52
2022-09-22T15:29:45.635Z,100760.05
2022-09-22T15:32:13.487Z,100762.49
2022-09-22T15:34:44.111Z,100762.12
2022-09-22T15:37:14.760Z,100761.10
2022-09-22T15:39:42.642Z,100763.41
2022-09-22T15:42:11.135Z,100764.23
2022-09-22T15:44:39.114Z,100765.84
2022-09-22T15:47:12.908Z,100767.52
2022-09-22T15:49:42.158Z,100769.90
2022-09-22T15:52:10.633Z,100767.23
2022-09-22T15:54:38.513Z,100770.34
2022-09-22T15:57:06.507Z,100770.55
2022-09-22T15:59:34.759Z,100770.11
2022-09-22T16:02:02.754Z,100773.61
2022-09-22T16:04:33.593Z,100772.71
2022-09-22T16:07:04.595Z,100772.81
2022-09-22T16:09:32.495Z,100769.27
2022-09-22T16:12:00.747Z,100772.39
2022-09-22T16:14:28.791Z,100770.19
2022-09-22T16:16:56.724Z,100771.86
2022-09-22T16:19:29.780Z,100773.21
2022-09-22T16:21:57.591Z,100773.26
2022-09-22T16:24:27.446Z,100782.29
2022-09-22T16:26:55.675Z,100779.29
2022-09-22T16:29:24.475Z,100784.49
2022-09-22T16:31:52.331Z,100785.42
2022-09-22T16:34:20.606Z,100788.16
2022-09-22T16:36:48.447Z,100789.45
2022-09-22T16:39:17.016Z,100795.59
2022-09-22T16:41:45.609Z,100797.77
2022-09-22T16:44:13.644Z,100798.66
2022-09-22T16:46:41.536Z,100807.59
2022-09-22T16:49:11.143Z,100806.13
2022-09-22T16:51:40.332Z,100810.14
2022-09-22T16:54:09.948Z,100813.54
2022-09-22T16:56:38.345Z,100819.60
2022-09-22T16:59:06.315Z,100825.20
2022-09-22T17:01:35.863Z,100828.02
2022-09-22T17:04:04.506Z,100838.18
2022-09-22T17:06:32.569Z,100845.91
2022-09-22T17:09:00.433Z,100848.99
2022-09-22T17:11:29.551Z,100855.54
2022-09-22T17:14:00.762Z,100855.59
2022-09-22T17:16:29.679Z,100861.23
2022-09-22T17:18:59.029Z,100862.04
2022-09-22T17:21:29.257Z,100863.98
2022-09-22T17:24:00.219Z,100863.54
2022-09-22T17:26:29.570Z,100857.52
2022-09-22T17:28:59.218Z,100862.86
2022-09-22T17:31:27.518Z,100866.33
2022-09-22T17:33:55.352Z,100864.58
2022-09-22T17:36:24.240Z,100862.56
2022-09-22T17:38:53.276Z,100858.21
2022-09-22T17:41:22.510Z,100856.34
2022-09-22T17:43:52.523Z,100856.02
2022-09-22T17:46:20.406Z,100861.76
2022-09-22T17:49:06.821Z,100864.23
2022-09-22T17:51:52.963Z,100871.09
2022-09-22T17:54:40.088Z,100874.59
2022-09-22T17:57:08.745Z,100876.15
2022-09-22T17:59:37.046Z,100878.52
2022-09-22T18:02:08.033Z,100875.50
2022-09-22T18:04:36.323Z,100876.55
2022-09-22T18:07:06.378Z,100877.45
2022-09-22T18:09:35.066Z,100880.29
2022-09-22T18:12:03.674Z,100882.81
2022-09-22T18:14:32.906Z,100883.95
2022-09-22T18:17:04.501Z,100890.30
2022-09-22T18:19:36.211Z,100888.84
2022-09-22T18:22:05.661Z,100895.30
2022-09-22T18:24:33.913Z,100897.46
2022-09-22T18:27:03.294Z,100901.65
2022-09-22T18:29:31.788Z,100904.46
2022-09-22T18:31:59.604Z,100907.98
2022-09-22T18:34:31.154Z,100907.61
2022-09-22T18:36:59.871Z,100902.26
2022-09-22T18:39:28.237Z,100900.02
2022-09-22T18:41:56.947Z,100901.29
2022-09-22T18:44:27.578Z,100900.63
2022-09-22T18:46:55.959Z,100899.98
2022-09-22T18:49:23.904Z,100900.11
2022-09-22T18:51:52.535Z,100897.60
2022-09-22T18:54:21.507Z,100896.27
2022-09-22T18:56:49.983Z,100895.87
2022-09-22T18:59:19.173Z,100896.73
2022-09-22T19:01:48.852Z,100895.71
2022-09-22T19:04:18.677Z,100897.58
2022-09-22T19:07:05.958Z,100899.45
2022-09-22T19:09:33.903Z,100903.99
2022-09-22T19:12:05.130Z,100905.59
2022-09-22T19:14:38.324Z,100905.21
2022-09-22T19:17:07.028Z,100906.08
2022-09-22T19:19:36.399Z,100907.75
2022-09-22T19:22:08.385Z,100907.77
2022-09-22T19:24:37.110Z,100905.96
2022-09-22T19:27:05.797Z,100907.23
2022-09-22T19:29:34.115Z,100911.09
2022-09-22T19:32:02.340Z,100909.89
2022-09-22T19:34:30.325Z,100908.74
2022-09-22T19:36:58.326Z,100907.98
2022-09-22T19:39:26.719Z,100909.73
2022-09-22T19:41:55.608Z,100910.15
2022-09-22T19:44:23.509Z,100911.85
2022-09-22T19:46:51.491Z,100916.74
2022-09-22T19:49:19.475Z,100918.69
2022-09-22T19:51:47.323Z,100919.94
2022-09-22T19:54:15.165Z,100925.88
2022-09-22T19:56:42.963Z,100929.52
2022-09-22T19:59:10.699Z,100931.80
2022-09-22T20:01:39.688Z,100935.23
2022-09-22T20:04:12.463Z,100940.92
2022-09-22T20:06:40.644Z,100941.09
2022-09-22T20:09:08.637Z,100941.34
2022-09-22T20:11:38.311Z,100940.27
2022-09-22T20:14:22.212Z,100939.46
2022-09-22T20:16:51.718Z,100938.02
2022-09-22T20:19:20.245Z,100937.45
2022-09-22T20:21:49.158Z,100937.82
2022-09-22T20:24:18.178Z,100942.23
2022-09-22T20:26:46.458Z,100943.84
2022-09-22T20:29:17.536Z,100947.49
2022-09-22T20:31:45.338Z,100948.95
2022-09-22T20:34:14.487Z,100951.67
2022-09-22T20:36:42.897Z,100955.98
2022-09-22T20:39:13.008Z,100961.92
2022-09-22T20:41:41.579Z,100969.09
2022-09-22T20:44:12.474Z,100978.85
2022-09-22T20:46:40.408Z,100983.34
2022-09-22T20:49:11.754Z,100979.15
2022-09-22T20:51:39.781Z,100983.23
2022-09-22T20:54:07.841Z,100977.95
2022-09-22T20:56:38.434Z,100980.63
2022-09-22T20:59:08.709Z,100978.79
2022-09-22T21:01:36.852Z,100980.36
2022-09-22T21:04:05.180Z,100981.81
2022-09-22T21:06:33.307Z,100980.47
2022-09-22T21:09:33.754Z,100982.88
2022-09-22T21:12:01.840Z,100979.65
2022-09-22T21:14:32.752Z,100981.36
2022-09-22T21:17:06.006Z,100977.40
2022-09-22T21:19:34.087Z,100975.67
2022-09-22T21:22:02.149Z,100972.59
2022-09-22T21:24:31.747Z,100976.18
2022-09-22T21:26:59.768Z,100976.08
2022-09-22T21:29:28.135Z,100973.86
2022-09-22T21:31:57.335Z,100976.19
2022-09-22T21:34:25.239Z,100972.88
2022-09-22T21:36:53.292Z,100971.20
2022-09-22T21:39:21.064Z,100971.77
2022-09-22T21:41:49.029Z,100970.30
2022-09-22T21:44:16.927Z,100962.77
2022-09-22T21:46:47.054Z,100958.55
2022-09-22T21:49:14.973Z,100955.27
2022-09-22T21:51:43.723Z,100953.15
2022-09-22T21:54:12.912Z,100951.75
2022-09-22T21:56:41.423Z,100951.29
2022-09-22T21:59:10.679Z,100948.70
2022-09-22T22:01:39.833Z,100944.27
2022-09-22T22:04:08.306Z,100941.11
2022-09-22T22:06:39.510Z,100934.90
2022-09-22T22:09:10.750Z,100932.02
2022-09-22T22:11:39.318Z,100932.05
2022-09-22T22:14:08.008Z,100928.36
2022-09-22T22:16:37.688Z,100927.08
2022-09-22T22:19:06.236Z,100928.29
2022-09-22T22:21:34.680Z,100926.59
2022-09-22T22:24:18.162Z,100918.83
2022-09-22T22:26:48.847Z,100919.45
2022-09-22T22:29:17.301Z,100918.25
2022-09-22T22:31:45.286Z,100914.70
2022-09-22T22:34:13.634Z,100915.53
2022-09-22T22:36:41.911Z,100911.98
2022-09-22T22:39:10.568Z,100910.61
2022-09-22T22:41:39.168Z,100907.05
2022-09-22T22:44:07.637Z,100908.04
2022-09-22T22:46:35.881Z,100906.71
2022-09-22T22:49:03.768Z,100906.94
2022-09-22T22:51:31.666Z,100905.45
2022-09-22T22:53:59.610Z,100904.69
2022-09-22T22:56:29.120Z,100904.65
2022-09-22T22:58:57.069Z,100903.15
2022-09-22T23:01:25.718Z,100901.45
2022-09-22T23:03:54.657Z,100898.30
2022-09-22T23:06:23.436Z,100903.55
2022-09-22T23:08:51.633Z,100905.73
2022-09-22T23:11:22.328Z,100908.84
2022-09-22T23:13:51.317Z,100907.27
2022-09-22T23:16:20.365Z,100911.07
2022-09-22T23:18:48.363Z,100912.15
2022-09-22T23:21:17.623Z,100915.10
2022-09-22T23:23:45.855Z,100916.86
2022-09-22T23:26:14.613Z,100919.30
2022-09-22T23:28:43.042Z,100921.41
2022-09-22T23:31:11.910Z,100929.48
2022-09-22T23:33:41.208Z,100929.86
2022-09-22T23:36:11.962Z,100930.90
2022-09-22T23:38:40.049Z,100930.02
2022-09-22T23:41:08.325Z,100934.40
2022-09-22T23:43:37.131Z,100930.14
2022-09-22T23:46:06.872Z,100927.56
2022-09-22T23:48:35.663Z,100924.54
2022-09-22T23:51:04.303Z,100924.05
2022-09-22T23:53:34.187Z,100922.30
2022-09-22T23:56:03.009Z,100918.70
2022-09-22T23:58:30.958Z,100919.00
